Time;durP1;ratioP1;P1;durP2;ratioP2;P2;SDS_P1;SDS_P2;PMS_P1;PMS_P2;Temp;Humidity;BMP_temperature;BMP_pressure;BME280_temperature;BME280_humidity;BME280_pressure;Samples;Min_cycle;Max_cycle;Signal;HPM_P1;HPM_P2
2022/12/22 03:26:26;;;;;;;2.80;1.00;;;17.50;54.50;;;;;;4940212;29;20225;-83
2022/12/22 03:28:52;;;;;;;1.63;0.93;;;17.50;54.40;;;;;;4938644;29;20168;-83
2022/12/22 03:31:18;;;;;;;2.38;1.20;;;17.50;54.40;;;;;;4938344;29;20286;-82
2022/12/22 03:33:47;;;;;;;1.83;1.02;;;17.50;54.40;;;;;;4938586;29;20185;-82
2022/12/22 03:36:14;;;;;;;2.28;1.20;;;17.50;54.40;;;;;;4922772;29;20166;-83
2022/12/22 03:38:42;;;;;;;3.10;1.20;;;17.40;54.40;;;;;;4922633;29;20176;-83
2022/12/22 03:46:28;;;;;;;3.63;1.30;;;17.40;54.50;;;;;;4922544;29;20261;-83
2022/12/22 03:46:36;;;;;;;3.55;1.40;;;17.50;54.60;;;;;;4940726;29;20229;-82
2022/12/22 03:49:10;;;;;;;3.83;1.20;;;17.40;54.60;;;;;;4938553;29;20165;-83
2022/12/22 03:51:42;;;;;;;2.05;1.02;;;17.50;54.60;;;;;;4923399;29;20181;-82
2022/12/22 03:54:08;;;;;;;2.13;1.00;;;17.40;54.60;;;;;;4938368;29;20719;-83
2022/12/22 03:56:34;;;;;;;3.15;1.13;;;17.50;54.80;;;;;;4938427;29;20165;-83
2022/12/22 03:59:00;;;;;;;3.03;1.27;;;17.40;54.60;;;;;;4938363;29;20253;-83
2022/12/22 04:01:26;;;;;;;1.73;1.00;;;17.50;54.40;;;;;;4922738;29;20173;-83
2022/12/22 04:03:52;;;;;;;1.52;1.00;;;17.50;54.50;;;;;;4938195;29;20183;-83
2022/12/22 04:06:17;;;;;;;2.08;1.40;;;17.50;54.40;;;;;;4955477;29;20185;-82
2022/12/22 04:08:43;;;;;;;2.13;1.10;;;17.50;54.50;;;;;;4938065;29;20158;-83
2022/12/22 04:13:56;;;;;;;1.92;1.00;;;17.40;54.60;;;;;;4940925;29;20268;-82
2022/12/22 04:16:22;;;;;;;1.83;0.90;;;17.40;54.60;;;;;;4922107;29;20195;-82
2022/12/22 04:18:49;;;;;;;2.00;1.20;;;17.40;54.60;;;;;;4938028;29;20153;-82
2022/12/22 04:21:15;;;;;;;2.17;1.23;;;17.40;54.70;;;;;;4922177;29;20633;-83
2022/12/22 04:23:40;;;;;;;1.48;1.00;;;17.40;54.70;;;;;;4940176;29;20172;-82
2022/12/22 04:26:06;;;;;;;2.05;1.00;;;17.40;54.60;;;;;;4925502;29;20220;-83
2022/12/22 04:28:33;;;;;;;1.52;1.10;;;17.40;54.50;;;;;;4941438;29;20248;-83
2022/12/22 04:30:59;;;;;;;1.67;0.95;;;17.40;54.80;;;;;;4958285;29;20169;-83
2022/12/22 04:33:25;;;;;;;1.55;0.82;;;17.40;54.80;;;;;;4925276;29;20197;-83
2022/12/22 04:35:51;;;;;;;2.13;1.10;;;17.40;54.60;;;;;;4925633;29;20256;-83
2022/12/22 04:38:16;;;;;;;1.50;0.98;;;17.40;54.80;;;;;;4925222;29;20686;-83
2022/12/22 04:40:42;;;;;;;1.55;1.13;;;17.40;54.70;;;;;;4925803;29;20217;-83
2022/12/22 04:43:08;;;;;;;1.63;1.00;;;17.40;54.90;;;;;;4925357;29;20176;-83
2022/12/22 04:45:33;;;;;;;2.70;1.17;;;17.40;54.80;;;;;;4941450;29;20169;-83
2022/12/22 04:48:00;;;;;;;2.28;1.00;;;17.40;54.70;;;;;;4925430;29;20211;-83
2022/12/22 04:50:27;;;;;;;1.98;1.10;;;17.40;54.70;;;;;;4925488;29;20174;-83
2022/12/22 04:52:52;;;;;;;2.03;1.20;;;17.30;54.70;;;;;;4940822;29;20208;-83
2022/12/22 04:55:21;;;;;;;2.28;0.93;;;17.40;54.70;;;;;;4925211;29;20168;-83
2022/12/22 04:57:48;;;;;;;2.47;1.10;;;17.40;54.80;;;;;;4957989;29;20157;-83
2022/12/22 05:00:14;;;;;;;1.70;1.13;;;17.40;54.80;;;;;;4940853;29;20146;-84
2022/12/22 05:02:39;;;;;;;1.55;1.02;;;17.40;54.80;;;;;;4924991;29;20173;-83
2022/12/22 05:05:09;;;;;;;2.30;1.25;;;17.40;54.80;;;;;;4924750;29;20169;-83
2022/12/22 05:07:35;;;;;;;1.52;0.82;;;17.40;54.90;;;;;;4957715;29;20164;-83
2022/12/22 05:10:02;;;;;;;1.45;1.08;;;17.30;54.90;;;;;;4924658;29;20173;-83
2022/12/22 05:15:06;;;;;;;2.90;1.13;;;17.30;55.00;;;;;;4942137;29;20193;-83
2022/12/22 05:17:34;;;;;;;2.20;1.02;;;17.30;54.90;;;;;;4925142;29;20220;-83
2022/12/22 05:20:00;;;;;;;2.38;0.93;;;17.30;54.90;;;;;;4940462;29;20162;-83
2022/12/22 05:22:25;;;;;;;2.67;1.20;;;17.40;55.00;;;;;;4924841;29;20189;-83
2022/12/22 05:24:51;;;;;;;1.92;1.10;;;17.40;55.10;;;;;;4924317;29;20224;-83
2022/12/22 05:27:17;;;;;;;1.50;1.10;;;17.30;54.90;;;;;;4925231;29;20176;-83
2022/12/22 05:29:43;;;;;;;1.48;0.90;;;17.30;55.10;;;;;;4945973;29;20186;-83
2022/12/22 05:32:10;;;;;;;2.70;1.30;;;17.30;55.10;;;;;;4946758;29;20166;-84
2022/12/22 05:34:36;;;;;;;2.10;1.13;;;17.30;55.10;;;;;;4931190;29;20192;-83
2022/12/22 05:37:02;;;;;;;2.17;1.02;;;17.30;55.20;;;;;;4930401;29;20185;-84
2022/12/22 05:39:28;;;;;;;1.50;1.10;;;17.30;55.10;;;;;;4942937;29;20158;-83
2022/12/22 05:41:54;;;;;;;3.47;1.10;;;17.30;55.10;;;;;;4924790;29;20169;-83
2022/12/22 05:44:21;;;;;;;1.42;0.90;;;17.30;55.80;;;;;;4924466;29;20232;-83
2022/12/22 05:46:50;;;;;;;1.98;1.10;;;17.30;55.10;;;;;;4924235;29;20169;-83
2022/12/22 05:49:17;;;;;;;1.70;1.05;;;17.30;55.20;;;;;;4940134;29;20160;-83
2022/12/22 05:51:45;;;;;;;2.40;1.00;;;17.30;55.10;;;;;;4923868;29;20168;-83
2022/12/22 05:54:10;;;;;;;2.42;1.08;;;17.20;55.10;;;;;;4923983;29;20244;-83
2022/12/22 05:56:36;;;;;;;2.08;1.05;;;17.20;55.10;;;;;;4940571;29;20613;-84
2022/12/22 05:59:02;;;;;;;1.20;1.00;;;17.30;55.10;;;;;;4924015;29;20214;-83
2022/12/22 06:01:27;;;;;;;3.92;1.23;;;17.20;55.10;;;;;;4939938;29;20154;-83
2022/12/22 06:03:54;;;;;;;1.70;1.20;;;17.20;55.10;;;;;;4939472;29;20158;-84
2022/12/22 06:06:23;;;;;;;2.08;1.20;;;17.30;54.90;;;;;;4923653;29;20174;-83
2022/12/22 06:08:48;;;;;;;1.33;0.90;;;17.20;55.00;;;;;;4939616;29;20158;-83
2022/12/22 06:11:17;;;;;;;1.55;0.98;;;17.30;55.00;;;;;;4923680;29;20169;-83
2022/12/22 06:13:45;;;;;;;1.88;1.13;;;17.30;55.10;;;;;;4939735;29;20588;-83
2022/12/22 06:16:11;;;;;;;2.05;1.10;;;17.30;55.10;;;;;;4924396;29;20189;-83
2022/12/22 06:18:38;;;;;;;2.67;1.20;;;17.30;55.10;;;;;;4939398;29;20161;-83
2022/12/22 06:21:06;;;;;;;1.63;0.98;;;17.30;55.00;;;;;;4939487;29;20172;-83
2022/12/22 06:23:32;;;;;;;2.20;1.20;;;17.20;55.00;;;;;;4923462;29;20177;-83
2022/12/22 06:26:00;;;;;;;2.17;1.10;;;17.20;55.10;;;;;;4923420;29;20319;-83
2022/12/22 06:28:26;;;;;;;1.52;0.90;;;17.20;55.20;;;;;;4923721;29;20162;-83
2022/12/22 06:30:55;;;;;;;1.33;0.90;;;17.20;55.20;;;;;;4923627;29;20186;-83
2022/12/22 06:33:20;;;;;;;1.60;0.80;;;17.20;55.10;;;;;;4939060;29;20247;-83
2022/12/22 06:35:46;;;;;;;1.35;0.95;;;17.30;55.00;;;;;;4939055;29;20157;-83
2022/12/22 06:38:12;;;;;;;2.45;0.98;;;17.20;55.10;;;;;;4923317;29;20158;-84
2022/12/22 06:40:38;;;;;;;3.38;1.25;;;17.20;55.00;;;;;;4923179;29;20682;-84
2022/12/22 06:43:07;;;;;;;1.63;1.13;;;17.20;55.10;;;;;;4923100;29;20162;-83
2022/12/22 06:45:35;;;;;;;2.05;1.20;;;17.20;55.00;;;;;;4939080;29;20146;-83
2022/12/22 06:48:03;;;;;;;1.95;1.10;;;17.20;55.10;;;;;;4923929;29;20173;-83
2022/12/22 06:50:28;;;;;;;1.92;1.00;;;17.20;54.70;;;;;;4923041;29;20505;-83
2022/12/22 06:52:54;;;;;;;1.67;0.90;;;17.20;55.10;;;;;;4922992;29;20169;-83
2022/12/22 06:55:20;;;;;;;1.55;1.00;;;17.30;55.20;;;;;;4939142;29;20153;-84
2022/12/22 06:57:46;;;;;;;0.80;0.75;;;17.20;55.30;;;;;;4923063;29;20593;-84
2022/12/22 07:00:14;;;;;;;2.13;1.20;;;17.20;55.00;;;;;;4922572;29;20168;-84
2022/12/22 07:02:40;;;;;;;2.15;1.15;;;17.30;54.90;;;;;;4922967;29;20162;-83
2022/12/22 07:05:06;;;;;;;1.88;0.93;;;17.30;54.80;;;;;;4938352;29;20161;-83
2022/12/22 07:07:34;;;;;;;2.00;1.00;;;17.30;54.90;;;;;;4938373;29;20164;-83
2022/12/22 07:10:04;;;;;;;1.45;1.05;;;17.30;54.80;;;;;;4938658;29;20162;-83
2022/12/22 07:12:29;;;;;;;1.40;1.10;;;17.30;55.10;;;;;;4938991;29;20162;-83
2022/12/22 07:14:55;;;;;;;1.17;0.80;;;17.30;54.70;;;;;;4924335;29;20247;-83
2022/12/22 07:17:21;;;;;;;1.98;1.10;;;17.30;55.00;;;;;;4923474;29;20161;-84
2022/12/22 07:19:46;;;;;;;1.20;0.82;;;17.30;54.80;;;;;;4924824;29;20162;-83
2022/12/22 07:22:12;;;;;;;1.60;1.08;;;17.30;54.70;;;;;;4923764;29;20166;-84
2022/12/22 07:24:38;;;;;;;1.08;0.80;;;17.30;54.90;;;;;;4939293;29;20168;-84
2022/12/22 07:27:03;;;;;;;1.60;1.10;;;17.30;54.80;;;;;;4923320;29;20181;-84
2022/12/22 07:29:30;;;;;;;2.25;1.10;;;17.40;54.80;;;;;;4923117;29;20236;-84
2022/12/22 07:31:57;;;;;;;1.92;0.95;;;17.30;54.60;;;;;;4940314;29;20161;-84
2022/12/22 07:34:22;;;;;;;1.40;0.90;;;17.40;54.40;;;;;;4939230;29;20209;-84
2022/12/22 07:36:50;;;;;;;1.42;0.82;;;17.40;54.10;;;;;;4923597;29;20176;-85
2022/12/22 07:39:17;;;;;;;2.30;0.90;;;17.50;54.10;;;;;;4924718;29;20173;-85
2022/12/22 07:44:25;;;;;;;1.98;0.90;;;17.60;53.70;;;;;;4941452;29;20161;-84
2022/12/22 07:46:52;;;;;;;1.15;0.88;;;17.60;53.50;;;;;;4925621;28;20188;-84
2022/12/22 07:51:56;;;;;;;1.10;0.80;;;17.70;53.30;;;;;;4959013;28;20157;-84
2022/12/22 07:54:24;;;;;;;1.75;0.90;;;17.70;53.40;;;;;;4942198;28;20185;-84
2022/12/22 07:56:50;;;;;;;1.20;0.90;;;17.70;53.40;;;;;;4944203;28;20172;-83
2022/12/22 07:59:17;;;;;;;0.98;0.80;;;17.70;53.40;;;;;;4930573;28;20184;-82
2022/12/22 08:01:42;;;;;;;1.23;0.90;;;17.80;53.30;;;;;;4930873;28;20172;-83
2022/12/22 08:04:09;;;;;;;2.35;0.90;;;17.80;53.30;;;;;;4946388;28;20161;-83
2022/12/22 08:06:35;;;;;;;1.27;0.68;;;17.80;53.30;;;;;;4931040;28;20644;-83
2022/12/22 08:09:01;;;;;;;1.73;1.00;;;17.80;53.40;;;;;;4946875;28;20498;-83
2022/12/22 08:11:27;;;;;;;1.63;0.90;;;17.80;53.40;;;;;;4962857;28;20236;-83
2022/12/22 08:13:53;;;;;;;1.40;0.90;;;17.80;53.30;;;;;;4946646;28;20223;-83
2022/12/22 08:16:21;;;;;;;1.30;0.82;;;17.80;53.30;;;;;;4931352;28;20172;-83
2022/12/22 08:18:47;;;;;;;1.10;0.70;;;17.90;53.10;;;;;;4964444;28;20154;-82
2022/12/22 08:21:12;;;;;;;1.40;0.73;;;17.90;53.30;;;;;;4948769;28;20166;-83
2022/12/22 08:23:39;;;;;;;1.27;0.80;;;17.90;53.40;;;;;;4964054;28;20177;-82
2022/12/22 08:26:25;;;;;;;1.67;0.90;;;17.80;53.40;;;;;;4963811;28;20231;-83
2022/12/22 08:28:57;;;;;;;1.60;0.85;;;17.80;53.20;;;;;;4963485;28;20375;-82
2022/12/22 08:31:24;;;;;;;2.25;1.02;;;17.80;53.60;;;;;;4933339;28;20168;-83
2022/12/22 08:33:50;;;;;;;0.80;0.73;;;17.90;53.50;;;;;;4949844;28;20200;-82
2022/12/22 08:36:16;;;;;;;1.70;1.00;;;17.90;53.40;;;;;;4947685;28;20164;-84
2022/12/22 08:38:43;;;;;;;3.00;0.80;;;17.90;53.50;;;;;;4934097;28;20172;-83
2022/12/22 08:41:11;;;;;;;4.10;1.10;;;17.80;53.40;;;;;;4948193;28;20160;-84
2022/12/22 08:43:37;;;;;;;1.25;0.85;;;17.90;53.30;;;;;;4931553;28;20177;-83
2022/12/22 08:46:03;;;;;;;2.65;0.50;;;17.90;53.60;;;;;;4962722;28;20185;-83
2022/12/22 08:48:28;;;;;;;1.63;0.65;;;17.90;53.50;;;;;;4963595;28;20168;-84
2022/12/22 08:50:56;;;;;;;1.15;0.73;;;17.90;53.60;;;;;;4934681;28;20299;-82
2022/12/22 08:53:22;;;;;;;1.98;0.93;;;17.90;53.50;;;;;;4963398;28;20184;-83
2022/12/22 08:55:52;;;;;;;1.10;0.77;;;17.90;53.40;;;;;;4965782;28;20240;-84
2022/12/22 08:58:17;;;;;;;1.08;0.90;;;17.90;53.50;;;;;;4949634;28;20160;-83
2022/12/22 09:00:43;;;;;;;2.88;0.95;;;18.00;53.60;;;;;;4947611;28;20188;-82
2022/12/22 09:03:10;;;;;;;1.33;0.88;;;18.00;53.60;;;;;;4932211;28;20165;-82
2022/12/22 09:05:37;;;;;;;5.40;0.75;;;18.00;53.50;;;;;;4953292;28;20172;-83
2022/12/22 09:08:05;;;;;;;3.33;0.80;;;18.00;53.60;;;;;;4936531;28;20164;-83
2022/12/22 09:10:32;;;;;;;1.08;0.80;;;18.00;53.50;;;;;;4950596;28;20173;-83
2022/12/22 09:12:59;;;;;;;0.98;0.70;;;18.10;53.60;;;;;;4981592;28;20161;-82
2022/12/22 09:15:26;;;;;;;2.78;1.05;;;18.00;53.40;;;;;;4948131;28;20161;-83
2022/12/22 09:17:52;;;;;;;2.55;0.90;;;18.10;53.60;;;;;;4947371;28;20173;-84
2022/12/22 09:20:18;;;;;;;2.33;1.08;;;18.00;53.30;;;;;;4948952;28;20641;-85
2022/12/22 09:22:44;;;;;;;3.30;0.75;;;18.10;53.40;;;;;;4931133;28;20172;-84
2022/12/22 09:25:10;;;;;;;1.75;0.90;;;18.10;53.50;;;;;;4930828;28;20255;-84
2022/12/22 09:27:37;;;;;;;1.73;0.70;;;18.10;53.50;;;;;;4964041;28;20153;-84
2022/12/22 09:30:03;;;;;;;3.08;1.05;;;18.10;53.50;;;;;;4964075;28;20168;-84
2022/12/22 09:32:30;;;;;;;1.83;0.93;;;18.20;53.60;;;;;;4962333;28;20188;-83
2022/12/22 09:34:55;;;;;;;2.58;1.00;;;18.10;54.20;;;;;;4960735;28;20189;-82
2022/12/22 09:37:21;;;;;;;1.85;0.90;;;18.20;53.70;;;;;;4928916;28;20199;-83
2022/12/22 09:39:47;;;;;;;3.50;0.90;;;18.20;53.70;;;;;;4961077;28;20226;-83
2022/12/22 09:42:14;;;;;;;2.90;0.88;;;18.20;53.70;;;;;;4929987;28;20614;-83
2022/12/22 09:44:43;;;;;;;4.20;0.93;;;18.20;53.70;;;;;;4929645;28;20208;-82
2022/12/22 09:47:21;;;;;;;3.72;1.13;;;18.20;54.00;;;;;;4930504;28;20176;-83
2022/12/22 09:49:48;;;;;;;4.88;1.27;;;18.20;54.10;;;;;;4945996;28;20635;-83
2022/12/22 09:52:24;;;;;;;4.85;0.90;;;18.20;54.10;;;;;;4928888;28;20172;-83
2022/12/22 09:54:54;;;;;;;1.90;0.65;;;18.30;54.20;;;;;;4944595;28;20623;-82
2022/12/22 09:57:19;;;;;;;2.80;0.70;;;18.20;54.10;;;;;;4944823;28;20267;-81
2022/12/22 09:59:45;;;;;;;1.30;0.90;;;18.30;54.40;;;;;;4929948;28;20662;-82
2022/12/22 10:02:32;;;;;;;3.90;0.95;;;18.40;54.30;;;;;;4929125;28;20289;-81
2022/12/22 10:05:25;;;;;;;1.38;0.85;;;18.30;54.20;;;;;;4978602;28;20153;-82
2022/12/22 10:07:51;;;;;;;1.25;0.80;;;18.20;54.20;;;;;;4947521;28;20211;-84
2022/12/22 10:10:24;;;;;;;4.13;0.90;;;18.30;54.30;;;;;;4977503;28;20165;-83
2022/12/22 10:12:54;;;;;;;5.05;0.90;;;18.30;54.20;;;;;;4944308;28;20157;-82
2022/12/22 10:15:20;;;;;;;1.88;0.90;;;18.30;54.40;;;;;;4929301;28;20184;-83
2022/12/22 10:17:45;;;;;;;3.08;0.80;;;18.30;54.40;;;;;;4932766;28;20179;-83
2022/12/22 10:20:24;;;;;;;1.63;0.98;;;18.30;54.30;;;;;;4960140;28;20624;-82
2022/12/22 10:22:58;;;;;;;0.98;0.70;;;18.30;54.40;;;;;;4927500;28;20168;-82
2022/12/22 10:25:30;;;;;;;0.93;0.77;;;18.30;54.20;;;;;;4943925;28;20271;-82
2022/12/22 10:27:57;;;;;;;1.83;0.70;;;18.40;54.20;;;;;;4944228;28;20604;-83
2022/12/22 10:30:28;;;;;;;1.98;0.73;;;18.30;54.20;;;;;;4943529;28;20161;-81
2022/12/22 10:33:12;;;;;;;1.83;0.60;;;18.30;54.20;;;;;;4942906;28;20164;-83
2022/12/22 10:35:44;;;;;;;1.98;0.70;;;18.30;54.30;;;;;;4958587;28;20161;-83
2022/12/22 10:38:18;;;;;;;2.28;0.77;;;18.30;54.30;;;;;;4942655;28;20619;-81
2022/12/22 10:40:45;;;;;;;1.92;0.80;;;18.30;54.00;;;;;;4943104;28;20159;-82
2022/12/22 10:43:19;;;;;;;2.13;0.73;;;18.40;54.50;;;;;;4943251;28;20167;-81
2022/12/22 10:45:48;;;;;;;1.00;0.77;;;18.40;54.50;;;;;;4926758;28;20547;-82
2022/12/22 10:48:15;;;;;;;2.33;0.60;;;18.40;54.50;;;;;;4959763;28;20181;-81
2022/12/22 10:50:46;;;;;;;3.08;1.00;;;18.40;54.50;;;;;;4959257;28;20161;-82
2022/12/22 10:53:12;;;;;;;3.25;0.80;;;18.40;54.60;;;;;;4943701;28;20669;-82
2022/12/22 10:55:43;;;;;;;3.80;0.73;;;18.30;54.30;;;;;;4942508;28;20161;-83
2022/12/22 10:58:18;;;;;;;2.88;0.82;;;18.40;54.60;;;;;;4927707;28;20316;-83
2022/12/22 11:00:43;;;;;;;2.40;0.90;;;18.40;54.70;;;;;;4942321;28;20192;-83
2022/12/22 11:03:10;;;;;;;4.97;0.85;;;18.40;55.40;;;;;;4961729;28;20169;-84
2022/12/22 11:05:36;;;;;;;3.05;0.80;;;18.40;54.80;;;;;;4943618;28;20578;-84
2022/12/22 11:08:16;;;;;;;5.10;0.68;;;18.40;54.80;;;;;;4958037;28;20153;-84
2022/12/22 11:11:01;;;;;;;3.17;0.80;;;18.40;54.80;;;;;;4958078;28;20183;-84
2022/12/22 11:13:39;;;;;;;3.38;0.80;;;18.30;54.90;;;;;;4942074;28;20188;-84
2022/12/22 11:16:39;;;;;;;3.30;0.65;;;18.40;54.80;;;;;;4975144;28;20191;-83
2022/12/22 11:19:29;;;;;;;2.50;0.75;;;18.40;54.70;;;;;;4946427;28;20224;-83
2022/12/22 11:22:05;;;;;;;2.67;0.77;;;18.40;54.70;;;;;;4944710;28;20176;-80
2022/12/22 11:24:52;;;;;;;2.13;0.65;;;18.40;54.70;;;;;;4942062;28;20184;-83
2022/12/22 11:27:31;;;;;;;1.98;0.63;;;18.50;54.70;;;;;;4943444;28;20658;-81
2022/12/22 11:30:11;;;;;;;1.45;0.80;;;18.50;54.70;;;;;;4957096;28;20268;-82
2022/12/22 11:32:59;;;;;;;2.85;0.77;;;18.40;54.70;;;;;;4945085;28;20627;-81
2022/12/22 11:35:59;;;;;;;3.03;0.77;;;18.50;54.70;;;;;;4948759;28;20624;-83
2022/12/22 11:38:35;;;;;;;2.78;0.70;;;18.50;54.70;;;;;;4962709;28;20179;-80
2022/12/22 11:41:40;;;;;;;4.07;0.80;;;18.50;54.60;;;;;;4950437;28;20172;-82
2022/12/22 11:44:21;;;;;;;3.35;0.70;;;18.40;54.60;;;;;;4982438;28;20153;-81
2022/12/22 11:46:58;;;;;;;2.85;0.80;;;18.50;54.40;;;;;;4967084;28;20165;-83
2022/12/22 11:49:35;;;;;;;3.33;0.77;;;18.40;54.40;;;;;;4953390;28;20173;-82
2022/12/22 11:52:31;;;;;;;2.22;0.85;;;18.50;54.20;;;;;;4967214;28;20160;-82
2022/12/22 11:55:22;;;;;;;3.25;0.90;;;18.50;54.40;;;;;;4949412;28;20311;-82
2022/12/22 11:58:28;;;;;;;3.10;0.70;;;18.50;54.20;;;;;;4951049;28;20203;-83
2022/12/22 12:01:09;;;;;;;1.30;0.63;;;18.50;54.30;;;;;;4977105;28;20152;-83
2022/12/22 12:04:15;;;;;;;1.98;0.80;;;18.50;54.40;;;;;;4979998;28;20167;-83
2022/12/22 12:07:01;;;;;;;1.13;0.65;;;18.50;54.30;;;;;;4953472;28;20173;-82
2022/12/22 12:09:59;;;;;;;2.55;0.70;;;18.50;54.20;;;;;;4962152;28;20157;-83
2022/12/22 12:12:36;;;;;;;1.13;0.65;;;18.50;54.20;;;;;;4978200;28;20169;-83
2022/12/22 12:15:24;;;;;;;1.33;0.70;;;18.50;54.00;;;;;;4946085;28;20662;-83
2022/12/22 12:18:17;;;;;;;1.45;0.70;;;18.50;54.10;;;;;;4944999;28;20187;-83
2022/12/22 12:21:01;;;;;;;2.78;1.00;;;18.50;54.00;;;;;;4948578;28;20187;-83
2022/12/22 12:23:53;;;;;;;4.00;0.88;;;18.50;54.00;;;;;;4927540;28;20188;-83
2022/12/22 12:26:30;;;;;;;2.03;0.90;;;18.50;53.90;;;;;;4963635;28;20217;-84
2022/12/22 12:29:25;;;;;;;1.88;0.80;;;18.60;54.00;;;;;;4960457;28;20156;-84
2022/12/22 12:31:59;;;;;;;1.88;0.70;;;18.50;53.90;;;;;;4902384;29;20190;-84
2022/12/22 12:34:28;;;;;;;2.55;0.65;;;18.60;53.90;;;;;;4886940;29;20210;-83
2022/12/22 12:37:04;;;;;;;1.42;0.65;;;18.60;53.90;;;;;;4887220;29;20187;-84
2022/12/22 12:40:03;;;;;;;1.40;0.63;;;18.50;53.80;;;;;;4846134;29;20196;-84
2022/12/22 12:42:39;;;;;;;2.53;0.70;;;18.50;53.70;;;;;;4846245;29;20172;-84
2022/12/22 12:45:34;;;;;;;1.15;0.70;;;18.50;53.90;;;;;;4808661;29;20220;-83
2022/12/22 12:48:35;;;;;;;3.80;0.80;;;18.50;53.90;;;;;;4794298;29;20186;-84
2022/12/22 12:51:39;;;;;;;1.67;0.75;;;18.50;53.70;;;;;;4824767;29;20332;-84
2022/12/22 12:54:21;;;;;;;2.97;0.70;;;18.50;53.80;;;;;;4824934;29;20213;-84
2022/12/22 12:57:10;;;;;;;1.92;0.60;;;18.50;53.70;;;;;;4809517;29;20193;-84
2022/12/22 12:59:44;;;;;;;1.65;0.80;;;18.50;53.70;;;;;;4826538;29;20205;-82
2022/12/22 13:02:30;;;;;;;1.20;0.77;;;18.50;53.50;;;;;;4823836;29;20189;-84
2022/12/22 13:05:01;;;;;;;0.50;0.50;;;18.50;53.70;;;;;;4809987;29;20280;-82
2022/12/22 13:07:59;;;;;;;1.50;0.60;;;18.50;53.50;;;;;;4824921;29;20186;-82
2022/12/22 13:10:27;;;;;;;0.85;0.70;;;18.40;53.70;;;;;;4846917;29;20670;-82
2022/12/22 13:12:53;;;;;;;1.95;0.70;;;18.40;53.50;;;;;;4849127;29;20180;-82
2022/12/22 13:15:34;;;;;;;1.67;0.80;;;18.40;53.40;;;;;;4891266;29;20610;-82
2022/12/22 13:18:00;;;;;;;1.33;0.80;;;18.40;53.50;;;;;;4920667;29;20154;-82
2022/12/22 13:20:29;;;;;;;1.15;0.60;;;18.40;53.40;;;;;;4921070;29;20682;-82
2022/12/22 13:22:56;;;;;;;2.25;0.60;;;18.40;53.20;;;;;;4933936;28;20329;-82
2022/12/22 13:25:22;;;;;;;1.15;0.70;;;18.40;53.20;;;;;;4924972;29;20224;-82
2022/12/22 13:27:48;;;;;;;1.10;0.70;;;18.50;53.10;;;;;;4940681;29;20179;-82
2022/12/22 13:30:15;;;;;;;0.95;0.73;;;18.50;53.10;;;;;;4924527;29;20530;-82
2022/12/22 13:32:41;;;;;;;2.00;0.63;;;18.50;53.00;;;;;;4940058;29;20294;-82
2022/12/22 13:35:21;;;;;;;1.50;0.60;;;18.40;53.00;;;;;;4939757;29;20216;-82
2022/12/22 13:37:48;;;;;;;1.13;0.65;;;18.40;53.20;;;;;;4940168;29;20244;-83
2022/12/22 13:40:30;;;;;;;1.38;0.60;;;18.40;53.00;;;;;;4924081;29;20178;-82
2022/12/22 13:43:04;;;;;;;2.80;0.73;;;18.40;53.00;;;;;;4925729;29;20173;-82
2022/12/22 13:45:39;;;;;;;2.35;0.70;;;18.40;53.80;;;;;;4924543;29;20173;-81
2022/12/22 13:48:15;;;;;;;1.13;0.60;;;18.40;53.20;;;;;;4941153;29;20191;-82
2022/12/22 13:50:44;;;;;;;1.02;0.60;;;18.50;53.00;;;;;;4940289;29;20153;-82
2022/12/22 13:53:10;;;;;;;1.17;0.60;;;18.50;53.00;;;;;;4941444;29;20624;-83
2022/12/22 13:55:38;;;;;;;1.45;0.80;;;18.50;52.80;;;;;;4925109;29;20209;-82
2022/12/22 13:58:11;;;;;;;0.77;0.70;;;18.50;52.70;;;;;;4958044;29;20182;-83
2022/12/22 14:00:37;;;;;;;1.48;1.02;;;18.50;52.80;;;;;;4957328;29;20212;-83
2022/12/22 14:03:04;;;;;;;0.70;0.57;;;18.50;53.00;;;;;;4958270;29;20153;-83
2022/12/22 14:05:31;;;;;;;1.40;0.68;;;18.50;52.80;;;;;;4941427;29;20164;-83
2022/12/22 14:08:02;;;;;;;2.15;0.75;;;18.50;53.00;;;;;;4939829;29;20157;-84
2022/12/22 14:10:34;;;;;;;2.08;1.10;;;18.50;52.80;;;;;;4939979;29;20580;-83
2022/12/22 14:13:01;;;;;;;1.40;0.70;;;18.50;53.00;;;;;;4926457;29;20534;-83
2022/12/22 14:15:28;;;;;;;0.57;0.50;;;18.50;52.80;;;;;;4925036;29;20208;-84
2022/12/22 14:17:53;;;;;;;2.65;0.65;;;18.50;52.80;;;;;;4957996;29;20160;-83
2022/12/22 14:20:25;;;;;;;1.05;0.65;;;18.50;52.80;;;;;;4940234;29;20158;-84
2022/12/22 14:22:54;;;;;;;1.05;0.70;;;18.50;52.90;;;;;;4924725;29;20158;-83
2022/12/22 14:25:27;;;;;;;1.08;0.70;;;18.50;52.90;;;;;;4946105;28;20243;-83
2022/12/22 14:27:54;;;;;;;1.20;0.75;;;18.50;52.90;;;;;;4943780;28;20224;-84
2022/12/22 14:30:23;;;;;;;0.63;0.60;;;18.50;52.70;;;;;;4927427;28;20643;-84
2022/12/22 14:32:52;;;;;;;1.02;0.60;;;18.50;52.70;;;;;;4926298;28;20172;-83
2022/12/22 14:35:28;;;;;;;0.70;0.70;;;18.50;52.70;;;;;;4942122;28;20563;-83
2022/12/22 14:38:18;;;;;;;0.85;0.80;;;18.50;52.60;;;;;;4942652;28;20243;-83
2022/12/22 14:40:44;;;;;;;1.27;0.70;;;18.50;52.60;;;;;;4942739;28;20581;-83
2022/12/22 14:43:24;;;;;;;0.75;0.63;;;18.50;52.60;;;;;;4942818;28;20161;-82
2022/12/22 14:45:50;;;;;;;2.25;0.60;;;18.50;52.60;;;;;;4942917;28;20207;-82
2022/12/22 14:48:30;;;;;;;1.02;0.63;;;18.40;52.60;;;;;;4926599;28;20539;-82
2022/12/22 14:50:56;;;;;;;0.90;0.70;;;18.50;52.60;;;;;;4942494;28;20200;-82
2022/12/22 14:53:24;;;;;;;0.60;0.57;;;18.50;52.60;;;;;;4941961;28;20205;-82
2022/12/22 14:55:50;;;;;;;1.10;0.52;;;18.50;52.60;;;;;;4942612;28;20149;-81
2022/12/22 14:58:33;;;;;;;0.80;0.60;;;18.50;52.60;;;;;;4926963;28;20295;-82
2022/12/22 15:01:23;;;;;;;2.45;0.73;;;18.50;52.50;;;;;;4929766;28;20161;-83
2022/12/22 15:03:59;;;;;;;0.95;0.60;;;18.50;52.60;;;;;;4959198;28;20168;-81
2022/12/22 15:06:42;;;;;;;1.50;0.80;;;18.50;52.50;;;;;;4942513;28;20161;-82
2022/12/22 15:09:24;;;;;;;2.80;0.88;;;18.40;52.50;;;;;;4958241;28;20171;-82
2022/12/22 15:11:55;;;;;;;1.60;0.60;;;18.50;52.60;;;;;;4924870;28;20160;-82
2022/12/22 15:14:23;;;;;;;0.93;0.65;;;18.50;52.60;;;;;;4942350;28;20271;-81
2022/12/22 15:16:49;;;;;;;5.80;0.90;;;18.40;52.50;;;;;;4940727;28;20153;-82
2022/12/22 15:19:16;;;;;;;3.33;0.90;;;18.50;52.60;;;;;;4940360;28;20168;-82
2022/12/22 15:21:41;;;;;;;4.15;0.70;;;18.50;52.50;;;;;;4973470;28;20573;-81
2022/12/22 15:24:14;;;;;;;4.57;0.93;;;18.50;52.60;;;;;;4956035;28;20156;-83
2022/12/22 15:26:40;;;;;;;5.50;1.15;;;18.50;52.30;;;;;;4957560;28;20220;-82
2022/12/22 15:29:05;;;;;;;5.80;1.05;;;18.40;52.40;;;;;;4941373;28;20579;-82
2022/12/22 15:31:31;;;;;;;5.50;1.00;;;18.50;52.30;;;;;;4957522;28;20259;-83
2022/12/22 15:33:59;;;;;;;3.65;1.00;;;18.50;52.20;;;;;;4957965;28;20196;-82
2022/12/22 15:36:24;;;;;;;10.00;1.27;;;18.50;52.40;;;;;;4942379;28;20207;-82
2022/12/22 15:38:55;;;;;;;4.13;0.77;;;18.50;52.50;;;;;;4939812;29;20632;-83
2022/12/22 15:41:21;;;;;;;10.13;1.30;;;18.50;52.60;;;;;;4938824;29;20162;-82
2022/12/22 15:43:46;;;;;;;2.80;1.23;;;18.50;52.70;;;;;;4941827;28;20183;-83
2022/12/22 15:46:15;;;;;;;8.73;1.13;;;18.50;52.60;;;;;;4958976;28;20153;-82
2022/12/22 15:48:41;;;;;;;6.75;1.00;;;18.50;52.60;;;;;;4943281;28;20184;-83
2022/12/22 15:51:12;;;;;;;4.55;1.00;;;18.50;52.50;;;;;;4927129;28;20267;-83
2022/12/22 15:53:38;;;;;;;2.95;1.08;;;18.50;52.50;;;;;;4942547;28;20239;-83
2022/12/22 15:56:03;;;;;;;7.35;1.20;;;18.50;52.20;;;;;;4926586;28;20169;-83
2022/12/22 15:58:34;;;;;;;8.73;1.45;;;18.60;52.40;;;;;;4926375;28;20164;-82
2022/12/22 16:01:00;;;;;;;5.28;0.90;;;18.60;52.40;;;;;;4928778;28;20173;-82
2022/12/22 16:03:28;;;;;;;5.22;1.05;;;18.60;52.40;;;;;;4948032;28;20153;-81
2022/12/22 16:05:54;;;;;;;11.15;1.23;;;18.60;52.30;;;;;;4961718;28;20161;-82
2022/12/22 16:08:25;;;;;;;4.93;1.25;;;18.60;52.60;;;;;;4929138;28;20169;-82
2022/12/22 16:10:51;;;;;;;4.68;1.10;;;18.60;52.60;;;;;;4963073;28;20160;-82
2022/12/22 16:13:16;;;;;;;4.78;1.17;;;18.60;52.60;;;;;;4943436;28;20540;-82
2022/12/22 16:15:42;;;;;;;4.00;0.95;;;18.60;52.60;;;;;;4958744;28;20188;-83
2022/12/22 16:18:09;;;;;;;2.83;1.00;;;18.60;52.60;;;;;;4957882;28;20157;-82
2022/12/22 16:20:39;;;;;;;6.05;1.00;;;18.60;52.50;;;;;;4931064;28;20196;-83
2022/12/22 16:23:05;;;;;;;3.65;1.20;;;18.60;52.60;;;;;;4963105;28;20174;-84
2022/12/22 16:25:32;;;;;;;5.40;1.05;;;18.60;52.60;;;;;;4963145;28;20223;-83
2022/12/22 16:28:00;;;;;;;5.43;1.00;;;18.60;53.00;;;;;;4950113;28;20183;-84
2022/12/22 16:30:31;;;;;;;6.50;1.45;;;18.70;52.90;;;;;;4948890;28;20247;-83
2022/12/22 16:32:56;;;;;;;7.35;1.15;;;18.70;53.60;;;;;;4978989;28;20157;-82
2022/12/22 16:35:24;;;;;;;3.92;1.08;;;18.70;52.90;;;;;;4945539;28;20192;-83
2022/12/22 16:37:50;;;;;;;3.30;1.13;;;18.70;52.70;;;;;;4961839;28;20153;-82
2022/12/22 16:40:17;;;;;;;5.40;1.00;;;18.70;52.80;;;;;;4945315;28;20164;-83
2022/12/22 16:42:58;;;;;;;5.45;1.02;;;18.70;53.00;;;;;;4933028;28;20592;-82